sensor_id;sensor_type;location;lat;lon;timestamp;pressure;altitude;pressure_sealevel;temperature;humidity
33454;BME280;39400;49.744;7.012;2023-03-01T00:00:04;96748.66;;;-2.71;96.63
33454;BME280;39400;49.744;7.012;2023-03-01T00:02:36;96744.03;;;-2.66;96.68
33454;BME280;39400;49.744;7.012;2023-03-01T00:05:02;96749.13;;;-2.64;96.86
33454;BME280;39400;49.744;7.012;2023-03-01T00:07:28;96757.72;;;-2.62;96.42
33454;BME280;39400;49.744;7.012;2023-03-01T00:09:53;96755.53;;;-2.60;97.04
33454;BME280;39400;49.744;7.012;2023-03-01T00:12:18;96744.19;;;-2.57;96.88
33454;BME280;39400;49.744;7.012;2023-03-01T00:14:44;96748.91;;;-2.68;98.63
33454;BME280;39400;49.744;7.012;2023-03-01T00:17:09;96737.84;;;-2.66;99.15
33454;BME280;39400;49.744;7.012;2023-03-01T00:19:35;96745.94;;;-2.66;99.52
33454;BME280;39400;49.744;7.012;2023-03-01T00:22:00;96745.28;;;-2.58;99.05
33454;BME280;39400;49.744;7.012;2023-03-01T00:24:25;96748.31;;;-2.65;99.44
33454;BME280;39400;49.744;7.012;2023-03-01T00:26:53;96739.38;;;-2.60;99.22
33454;BME280;39400;49.744;7.012;2023-03-01T00:29:19;96748.09;;;-2.68;99.98
33454;BME280;39400;49.744;7.012;2023-03-01T00:31:44;96747.16;;;-2.58;98.92
33454;BME280;39400;49.744;7.012;2023-03-01T00:34:09;96739.84;;;-2.53;98.21
33454;BME280;39400;49.744;7.012;2023-03-01T00:36:36;96747.53;;;-2.65;99.03
33454;BME280;39400;49.744;7.012;2023-03-01T00:39:03;96749.81;;;-2.77;100.00
33454;BME280;39400;49.744;7.012;2023-03-01T00:41:30;96749.81;;;-2.77;100.00
33454;BME280;39400;49.744;7.012;2023-03-01T00:43:55;96749.69;;;-2.67;100.00
33454;BME280;39400;49.744;7.012;2023-03-01T00:46:24;96752.97;;;-2.70;99.93
33454;BME280;39400;49.744;7.012;2023-03-01T00:48:49;96745.84;;;-2.80;100.00
33454;BME280;39400;49.744;7.012;2023-03-01T00:51:23;96754.13;;;-2.76;100.00
33454;BME280;39400;49.744;7.012;2023-03-01T00:53:54;96759.00;;;-2.78;100.00
33454;BME280;39400;49.744;7.012;2023-03-01T00:56:20;96755.81;;;-2.80;100.00
33454;BME280;39400;49.744;7.012;2023-03-01T00:58:45;96754.75;;;-2.84;100.00
33454;BME280;39400;49.744;7.012;2023-03-01T01:01:19;96753.69;;;-2.83;100.00
33454;BME280;39400;49.744;7.012;2023-03-01T01:03:50;96755.91;;;-2.91;100.00
33454;BME280;39400;49.744;7.012;2023-03-01T01:06:21;96753.28;;;-2.96;100.00
33454;BME280;39400;49.744;7.012;2023-03-01T01:08:48;96746.88;;;-3.00;100.00
33454;BME280;39400;49.744;7.012;2023-03-01T01:11:14;96736.09;;;-3.00;100.00
33454;BME280;39400;49.744;7.012;2023-03-01T01:13:40;96742.84;;;-3.02;100.00
33454;BME280;39400;49.744;7.012;2023-03-01T01:16:06;96731.31;;;-3.03;100.00
33454;BME280;39400;49.744;7.012;2023-03-01T01:18:32;96740.13;;;-2.97;100.00
33454;BME280;39400;49.744;7.012;2023-03-01T01:20:57;96734.00;;;-3.03;100.00
33454;BME280;39400;49.744;7.012;2023-03-01T01:23:23;96738.56;;;-3.03;100.00
33454;BME280;39400;49.744;7.012;2023-03-01T01:25:48;96733.00;;;-3.12;100.00
33454;BME280;39400;49.744;7.012;2023-03-01T01:28:13;96733.00;;;-3.12;100.00
33454;BME280;39400;49.744;7.012;2023-03-01T01:30:39;96731.16;;;-3.12;100.00
33454;BME280;39400;49.744;7.012;2023-03-01T01:33:04;96719.53;;;-3.07;100.00
33454;BME280;39400;49.744;7.012;2023-03-01T01:35:29;96724.38;;;-3.09;100.00
33454;BME280;39400;49.744;7.012;2023-03-01T01:37:55;96715.56;;;-3.15;100.00
33454;BME280;39400;49.744;7.012;2023-03-01T01:40:20;96712.69;;;-3.23;100.00
33454;BME280;39400;49.744;7.012;2023-03-01T01:42:45;96707.63;;;-3.25;100.00
33454;BME280;39400;49.744;7.012;2023-03-01T01:45:34;96710.44;;;-3.11;100.00
33454;BME280;39400;49.744;7.012;2023-03-01T01:48:06;96698.66;;;-3.15;100.00
33454;BME280;39400;49.744;7.012;2023-03-01T01:50:33;96702.06;;;-3.09;100.00
33454;BME280;39400;49.744;7.012;2023-03-01T01:53:00;96692.97;;;-3.14;100.00
33454;BME280;39400;49.744;7.012;2023-03-01T01:55:27;96681.19;;;-3.18;100.00
33454;BME280;39400;49.744;7.012;2023-03-01T01:57:56;96668.47;;;-3.12;100.00
33454;BME280;39400;49.744;7.012;2023-03-01T02:00:26;96674.50;;;-3.01;100.00
33454;BME280;39400;49.744;7.012;2023-03-01T02:03:02;96672.13;;;-3.03;100.00
33454;BME280;39400;49.744;7.012;2023-03-01T02:05:43;96669.13;;;-3.01;100.00
33454;BME280;39400;49.744;7.012;2023-03-01T02:08:12;96668.66;;;-2.84;100.00
33454;BME280;39400;49.744;7.012;2023-03-01T02:10:39;96657.75;;;-2.93;100.00
33454;BME280;39400;49.744;7.012;2023-03-01T02:13:06;96660.13;;;-3.11;100.00
33454;BME280;39400;49.744;7.012;2023-03-01T02:15:34;96660.34;;;-3.07;100.00
33454;BME280;39400;49.744;7.012;2023-03-01T02:18:01;96655.41;;;-3.00;100.00
33454;BME280;39400;49.744;7.012;2023-03-01T02:20:35;96654.69;;;-2.87;100.00
33454;BME280;39400;49.744;7.012;2023-03-01T02:23:04;96650.69;;;-2.89;100.00
33454;BME280;39400;49.744;7.012;2023-03-01T02:25:37;96635.63;;;-3.09;100.00
33454;BME280;39400;49.744;7.012;2023-03-01T02:30:39;96638.69;;;-2.97;100.00
33454;BME280;39400;49.744;7.012;2023-03-01T02:33:05;96640.59;;;-2.97;100.00
33454;BME280;39400;49.744;7.012;2023-03-01T02:35:33;96629.53;;;-2.96;100.00
33454;BME280;39400;49.744;7.012;2023-03-01T02:38:01;96634.31;;;-2.93;100.00
33454;BME280;39400;49.744;7.012;2023-03-01T02:40:30;96630.97;;;-2.84;100.00
33454;BME280;39400;49.744;7.012;2023-03-01T02:42:58;96628.59;;;-2.86;100.00
33454;BME280;39400;49.744;7.012;2023-03-01T02:45:25;96625.25;;;-2.97;100.00
33454;BME280;39400;49.744;7.012;2023-03-01T02:47:56;96632.16;;;-2.91;100.00
33454;BME280;39400;49.744;7.012;2023-03-01T02:55:23;96629.81;;;-2.78;100.00
33454;BME280;39400;49.744;7.012;2023-03-01T02:57:49;96624.88;;;-2.71;100.00
33454;BME280;39400;49.744;7.012;2023-03-01T03:00:19;96620.22;;;-2.84;100.00
33454;BME280;39400;49.744;7.012;2023-03-01T03:02:47;96627.22;;;-2.83;100.00
33454;BME280;39400;49.744;7.012;2023-03-01T03:05:19;96615.78;;;-2.75;100.00
33454;BME280;39400;49.744;7.012;2023-03-01T03:07:46;96627.13;;;-2.78;100.00
33454;BME280;39400;49.744;7.012;2023-03-01T03:10:30;96621.16;;;-2.75;100.00
33454;BME280;39400;49.744;7.012;2023-03-01T03:13:01;96612.50;;;-2.72;100.00
33454;BME280;39400;49.744;7.012;2023-03-01T03:15:28;96614.09;;;-2.71;100.00
33454;BME280;39400;49.744;7.012;2023-03-01T03:17:55;96606.25;;;-2.68;100.00
33454;BME280;39400;49.744;7.012;2023-03-01T03:20:24;96596.38;;;-2.72;100.00
33454;BME280;39400;49.744;7.012;2023-03-01T03:22:52;96591.53;;;-2.56;100.00
33454;BME280;39400;49.744;7.012;2023-03-01T03:25:19;96592.09;;;-2.73;100.00
33454;BME280;39400;49.744;7.012;2023-03-01T03:27:46;96595.41;;;-2.81;100.00
33454;BME280;39400;49.744;7.012;2023-03-01T03:30:15;96591.63;;;-2.61;100.00
33454;BME280;39400;49.744;7.012;2023-03-01T03:32:43;96588.63;;;-2.60;100.00
33454;BME280;39400;49.744;7.012;2023-03-01T03:35:09;96586.75;;;-2.78;100.00
33454;BME280;39400;49.744;7.012;2023-03-01T03:37:39;96586.91;;;-2.70;100.00
33454;BME280;39400;49.744;7.012;2023-03-01T03:40:05;96587.19;;;-2.71;100.00
33454;BME280;39400;49.744;7.012;2023-03-01T03:42:30;96575.41;;;-2.75;100.00
33454;BME280;39400;49.744;7.012;2023-03-01T03:44:56;96570.25;;;-2.72;100.00
33454;BME280;39400;49.744;7.012;2023-03-01T03:47:21;96580.28;;;-2.77;100.00
33454;BME280;39400;49.744;7.012;2023-03-01T03:49:46;96579.78;;;-2.79;100.00
33454;BME280;39400;49.744;7.012;2023-03-01T03:52:11;96573.53;;;-2.94;100.00
33454;BME280;39400;49.744;7.012;2023-03-01T03:54:37;96572.34;;;-2.88;100.00
33454;BME280;39400;49.744;7.012;2023-03-01T03:57:02;96571.44;;;-2.97;100.00
33454;BME280;39400;49.744;7.012;2023-03-01T03:59:28;96570.91;;;-2.99;100.00
33454;BME280;39400;49.744;7.012;2023-03-01T04:01:53;96568.88;;;-3.07;100.00
33454;BME280;39400;49.744;7.012;2023-03-01T04:04:18;96563.00;;;-3.28;100.00
33454;BME280;39400;49.744;7.012;2023-03-01T04:06:44;96571.94;;;-3.32;100.00
33454;BME280;39400;49.744;7.012;2023-03-01T04:09:09;96572.00;;;-3.38;100.00
33454;BME280;39400;49.744;7.012;2023-03-01T04:11:34;96569.25;;;-3.32;100.00
33454;BME280;39400;49.744;7.012;2023-03-01T04:13:59;96573.97;;;-3.24;100.00
33454;BME280;39400;49.744;7.012;2023-03-01T04:16:25;96575.91;;;-3.30;100.00
33454;BME280;39400;49.744;7.012;2023-03-01T04:18:51;96565.38;;;-3.26;100.00
33454;BME280;39400;49.744;7.012;2023-03-01T04:21:16;96566.63;;;-3.19;100.00
33454;BME280;39400;49.744;7.012;2023-03-01T04:23:41;96570.41;;;-3.20;100.00
33454;BME280;39400;49.744;7.012;2023-03-01T04:26:07;96562.19;;;-3.28;100.00
33454;BME280;39400;49.744;7.012;2023-03-01T04:28:35;96555.63;;;-3.22;100.00
33454;BME280;39400;49.744;7.012;2023-03-01T04:31:04;96568.31;;;-3.04;100.00
33454;BME280;39400;49.744;7.012;2023-03-01T04:33:29;96563.72;;;-3.03;100.00
33454;BME280;39400;49.744;7.012;2023-03-01T04:35:55;96562.34;;;-3.01;100.00
33454;BME280;39400;49.744;7.012;2023-03-01T04:38:20;96555.72;;;-3.08;100.00
33454;BME280;39400;49.744;7.012;2023-03-01T04:40:45;96554.00;;;-3.18;100.00
33454;BME280;39400;49.744;7.012;2023-03-01T04:43:11;96554.31;;;-3.44;100.00
33454;BME280;39400;49.744;7.012;2023-03-01T04:45:37;96553.38;;;-3.34;100.00
33454;BME280;39400;49.744;7.012;2023-03-01T04:48:03;96555.16;;;-3.24;100.00
33454;BME280;39400;49.744;7.012;2023-03-01T04:50:29;96551.31;;;-3.18;100.00
33454;BME280;39400;49.744;7.012;2023-03-01T04:52:55;96553.91;;;-3.32;100.00
33454;BME280;39400;49.744;7.012;2023-03-01T04:55:20;96559.00;;;-3.30;100.00
33454;BME280;39400;49.744;7.012;2023-03-01T04:57:45;96564.59;;;-3.27;100.00
33454;BME280;39400;49.744;7.012;2023-03-01T05:00:13;96568.81;;;-3.21;100.00
33454;BME280;39400;49.744;7.012;2023-03-01T05:02:38;96559.22;;;-3.27;100.00
33454;BME280;39400;49.744;7.012;2023-03-01T05:05:04;96561.31;;;-3.05;100.00
33454;BME280;39400;49.744;7.012;2023-03-01T05:07:29;96557.47;;;-2.99;100.00
33454;BME280;39400;49.744;7.012;2023-03-01T05:09:54;96553.25;;;-3.05;100.00
33454;BME280;39400;49.744;7.012;2023-03-01T05:12:20;96560.59;;;-3.11;100.00
33454;BME280;39400;49.744;7.012;2023-03-01T05:14:45;96554.13;;;-3.09;100.00
33454;BME280;39400;49.744;7.012;2023-03-01T05:17:10;96558.72;;;-3.10;100.00
33454;BME280;39400;49.744;7.012;2023-03-01T05:19:36;96553.03;;;-3.27;100.00
33454;BME280;39400;49.744;7.012;2023-03-01T05:22:01;96554.41;;;-3.30;100.00
33454;BME280;39400;49.744;7.012;2023-03-01T05:24:27;96548.94;;;-3.44;100.00
33454;BME280;39400;49.744;7.012;2023-03-01T05:26:53;96548.50;;;-3.51;100.00
33454;BME280;39400;49.744;7.012;2023-03-01T05:29:19;96549.03;;;-3.49;100.00
33454;BME280;39400;49.744;7.012;2023-03-01T05:31:45;96548.88;;;-3.82;100.00
33454;BME280;39400;49.744;7.012;2023-03-01T05:34:10;96536.53;;;-3.83;100.00
33454;BME280;39400;49.744;7.012;2023-03-01T05:36:35;96533.06;;;-3.64;100.00
33454;BME280;39400;49.744;7.012;2023-03-01T05:39:01;96534.97;;;-3.65;100.00
33454;BME280;39400;49.744;7.012;2023-03-01T05:41:26;96533.75;;;-3.53;100.00
33454;BME280;39400;49.744;7.012;2023-03-01T05:43:51;96533.66;;;-3.67;100.00
33454;BME280;39400;49.744;7.012;2023-03-01T05:46:17;96528.66;;;-3.74;100.00
33454;BME280;39400;49.744;7.012;2023-03-01T05:48:42;96524.53;;;-3.66;100.00
33454;BME280;39400;49.744;7.012;2023-03-01T05:51:07;96527.47;;;-3.68;100.00
33454;BME280;39400;49.744;7.012;2023-03-01T05:53:33;96529.38;;;-3.68;100.00
33454;BME280;39400;49.744;7.012;2023-03-01T05:55:58;96524.66;;;-3.76;100.00
33454;BME280;39400;49.744;7.012;2023-03-01T05:58:23;96532.75;;;-3.82;100.00
33454;BME280;39400;49.744;7.012;2023-03-01T06:00:49;96533.91;;;-3.88;100.00
33454;BME280;39400;49.744;7.012;2023-03-01T06:03:16;96540.00;;;-3.82;100.00
33454;BME280;39400;49.744;7.012;2023-03-01T06:05:42;96536.88;;;-3.89;100.00
33454;BME280;39400;49.744;7.012;2023-03-01T06:08:09;96531.22;;;-3.88;100.00
33454;BME280;39400;49.744;7.012;2023-03-01T06:10:34;96531.91;;;-4.01;100.00
33454;BME280;39400;49.744;7.012;2023-03-01T06:13:00;96533.22;;;-3.98;100.00
33454;BME280;39400;49.744;7.012;2023-03-01T06:15:26;96541.25;;;-3.98;100.00
33454;BME280;39400;49.744;7.012;2023-03-01T06:17:53;96531.91;;;-4.01;100.00
33454;BME280;39400;49.744;7.012;2023-03-01T06:20:21;96540.66;;;-3.90;100.00
33454;BME280;39400;49.744;7.012;2023-03-01T06:22:47;96538.84;;;-3.95;100.00
33454;BME280;39400;49.744;7.012;2023-03-01T06:25:16;96540.88;;;-3.87;100.00
33454;BME280;39400;49.744;7.012;2023-03-01T06:27:42;96539.78;;;-3.86;100.00
33454;BME280;39400;49.744;7.012;2023-03-01T06:30:09;96541.44;;;-3.90;100.00
33454;BME280;39400;49.744;7.012;2023-03-01T06:32:35;96541.56;;;-4.00;100.00
33454;BME280;39400;49.744;7.012;2023-03-01T06:35:00;96543.56;;;-3.87;100.00
33454;BME280;39400;49.744;7.012;2023-03-01T06:37:26;96538.19;;;-3.87;100.00
33454;BME280;39400;49.744;7.012;2023-03-01T06:39:51;96537.41;;;-3.87;100.00
33454;BME280;39400;49.744;7.012;2023-03-01T06:42:17;96535.50;;;-3.87;100.00
33454;BME280;39400;49.744;7.012;2023-03-01T06:44:42;96530.13;;;-3.87;100.00
33454;BME280;39400;49.744;7.012;2023-03-01T06:47:08;96530.72;;;-3.90;100.00
33454;BME280;39400;49.744;7.012;2023-03-01T06:49:34;96532.28;;;-3.89;100.00
33454;BME280;39400;49.744;7.012;2023-03-01T06:51:59;96530.72;;;-3.90;100.00
33454;BME280;39400;49.744;7.012;2023-03-01T06:54:24;96537.09;;;-3.86;100.00
33454;BME280;39400;49.744;7.012;2023-03-01T06:56:50;96525.34;;;-3.90;100.00
33454;BME280;39400;49.744;7.012;2023-03-01T06:59:16;96523.06;;;-3.77;100.00
33454;BME280;39400;49.744;7.012;2023-03-01T07:01:41;96522.97;;;-3.72;100.00
33454;BME280;39400;49.744;7.012;2023-03-01T07:04:07;96516.84;;;-3.78;100.00
33454;BME280;39400;49.744;7.012;2023-03-01T07:06:32;96510.06;;;-3.70;100.00
33454;BME280;39400;49.744;7.012;2023-03-01T07:08:58;96520.75;;;-3.65;100.00
33454;BME280;39400;49.744;7.012;2023-03-01T07:11:23;96511.00;;;-3.61;100.00
33454;BME280;39400;49.744;7.012;2023-03-01T07:13:48;96516.38;;;-3.61;100.00
33454;BME280;39400;49.744;7.012;2023-03-01T07:16:14;96505.00;;;-3.53;100.00
33454;BME280;39400;49.744;7.012;2023-03-01T07:18:40;96515.44;;;-3.51;100.00
33454;BME280;39400;49.744;7.012;2023-03-01T07:21:11;96510.88;;;-3.51;100.00
33454;BME280;39400;49.744;7.012;2023-03-01T07:23:37;96515.41;;;-3.46;100.00
33454;BME280;39400;49.744;7.012;2023-03-01T07:26:03;96521.28;;;-3.44;100.00
33454;BME280;39400;49.744;7.012;2023-03-01T07:28:28;96512.94;;;-3.43;100.00
33454;BME280;39400;49.744;7.012;2023-03-01T07:30:53;96517.44;;;-3.38;100.00
33454;BME280;39400;49.744;7.012;2023-03-01T07:33:19;96506.00;;;-3.30;100.00
33454;BME280;39400;49.744;7.012;2023-03-01T07:35:45;96513.22;;;-3.25;100.00
33454;BME280;39400;49.744;7.012;2023-03-01T07:38:11;96500.69;;;-3.16;100.00
33454;BME280;39400;49.744;7.012;2023-03-01T07:40:36;96495.59;;;-2.99;100.00
33454;BME280;39400;49.744;7.012;2023-03-01T07:43:02;96477.69;;;-2.90;100.00
33454;BME280;39400;49.744;7.012;2023-03-01T07:45:28;96483.94;;;-2.75;100.00
33454;BME280;39400;49.744;7.012;2023-03-01T07:47:54;96491.09;;;-2.71;100.00
33454;BME280;39400;49.744;7.012;2023-03-01T07:50:21;96495.34;;;-2.51;100.00
33454;BME280;39400;49.744;7.012;2023-03-01T07:52:47;96491.97;;;-2.43;100.00
33454;BME280;39400;49.744;7.012;2023-03-01T07:55:14;96502.75;;;-2.29;100.00
33454;BME280;39400;49.744;7.012;2023-03-01T07:57:39;96485.34;;;-2.18;100.00
33454;BME280;39400;49.744;7.012;2023-03-01T08:00:05;96493.22;;;-2.07;100.00
33454;BME280;39400;49.744;7.012;2023-03-01T08:02:37;96494.41;;;-2.00;100.00
33454;BME280;39400;49.744;7.012;2023-03-01T08:05:03;96495.00;;;-2.03;100.00
33454;BME280;39400;49.744;7.012;2023-03-01T08:07:28;96497.09;;;-1.86;100.00
33454;BME280;39400;49.744;7.012;2023-03-01T08:09:53;96478.44;;;-1.82;100.00
33454;BME280;39400;49.744;7.012;2023-03-01T08:12:19;96493.81;;;-1.69;100.00
33454;BME280;39400;49.744;7.012;2023-03-01T08:14:44;96490.72;;;-1.76;100.00
33454;BME280;39400;49.744;7.012;2023-03-01T08:17:09;96495.59;;;-1.64;100.00
33454;BME280;39400;49.744;7.012;2023-03-01T08:19:35;96493.78;;;-1.55;100.00
33454;BME280;39400;49.744;7.012;2023-03-01T08:22:03;96490.59;;;-1.57;100.00
33454;BME280;39400;49.744;7.012;2023-03-01T08:24:29;96485.16;;;-1.44;100.00
33454;BME280;39400;49.744;7.012;2023-03-01T08:26:54;96482.38;;;-1.38;100.00
33454;BME280;39400;49.744;7.012;2023-03-01T08:29:20;96484.72;;;-1.23;100.00
33454;BME280;39400;49.744;7.012;2023-03-01T08:31:46;96492.63;;;-1.27;100.00
33454;BME280;39400;49.744;7.012;2023-03-01T08:34:16;96486.69;;;-1.15;100.00
33454;BME280;39400;49.744;7.012;2023-03-01T08:36:43;96482.66;;;-1.04;100.00
33454;BME280;39400;49.744;7.012;2023-03-01T08:39:11;96484.47;;;-0.90;100.00
33454;BME280;39400;49.744;7.012;2023-03-01T08:41:37;96483.25;;;-0.84;100.00
33454;BME280;39400;49.744;7.012;2023-03-01T08:44:03;96482.47;;;-1.07;100.00
33454;BME280;39400;49.744;7.012;2023-03-01T08:46:33;96467.88;;;-0.84;100.00
33454;BME280;39400;49.744;7.012;2023-03-01T08:48:59;96479.47;;;-0.61;100.00
33454;BME280;39400;49.744;7.012;2023-03-01T08:51:26;96480.53;;;-0.39;100.00
33454;BME280;39400;49.744;7.012;2023-03-01T08:53:51;96470.88;;;-0.32;100.00
33454;BME280;39400;49.744;7.012;2023-03-01T08:56:17;96469.88;;;-0.05;100.00
33454;BME280;39400;49.744;7.012;2023-03-01T08:58:44;96469.88;;;-0.05;100.00
33454;BME280;39400;49.744;7.012;2023-03-01T09:01:11;96462.31;;;0.15;100.00
33454;BME280;39400;49.744;7.012;2023-03-01T09:03:37;96462.19;;;0.29;100.00
33454;BME280;39400;49.744;7.012;2023-03-01T09:06:04;96466.97;;;0.32;100.00
33454;BME280;39400;49.744;7.012;2023-03-01T09:08:31;96471.31;;;0.59;100.00
33454;BME280;39400;49.744;7.012;2023-03-01T09:11:01;96468.97;;;0.83;100.00
33454;BME280;39400;49.744;7.012;2023-03-01T09:13:27;96465.59;;;1.04;100.00
33454;BME280;39400;49.744;7.012;2023-03-01T09:15:53;96469.41;;;1.20;100.00
33454;BME280;39400;49.744;7.012;2023-03-01T09:18:24;96466.41;;;1.04;100.00
33454;BME280;39400;49.744;7.012;2023-03-01T09:20:50;96458.75;;;1.32;100.00
33454;BME280;39400;49.744;7.012;2023-03-01T09:23:15;96447.56;;;1.42;100.00
33454;BME280;39400;49.744;7.012;2023-03-01T09:25:40;96452.50;;;1.40;99.08
33454;BME280;39400;49.744;7.012;2023-03-01T09:28:06;96443.09;;;1.38;97.84
33454;BME280;39400;49.744;7.012;2023-03-01T09:30:31;96441.78;;;1.61;98.28
33454;BME280;39400;49.744;7.012;2023-03-01T09:32:57;96433.28;;;1.80;97.46
33454;BME280;39400;49.744;7.012;2023-03-01T09:35:22;96438.69;;;1.80;95.64
33454;BME280;39400;49.744;7.012;2023-03-01T09:37:47;96437.91;;;1.71;95.96
33454;BME280;39400;49.744;7.012;2023-03-01T09:40:16;96432.84;;;1.61;93.97
33454;BME280;39400;49.744;7.012;2023-03-01T09:43:29;96439.03;;;1.70;95.11
33454;BME280;39400;49.744;7.012;2023-03-01T09:45:53;96441.63;;;1.66;94.72
33454;BME280;39400;49.744;7.012;2023-03-01T09:48:22;96430.88;;;1.79;95.08
33454;BME280;39400;49.744;7.012;2023-03-01T09:50:49;96438.38;;;1.73;93.32
33454;BME280;39400;49.744;7.012;2023-03-01T09:53:26;96433.28;;;1.80;94.24
33454;BME280;39400;49.744;7.012;2023-03-01T09:56:24;96439.44;;;1.89;94.21
33454;BME280;39400;49.744;7.012;2023-03-01T10:04:51;96426.34;;;2.21;94.13
33454;BME280;39400;49.744;7.012;2023-03-01T10:09:52;96424.88;;;2.03;91.89
33454;BME280;39400;49.744;7.012;2023-03-01T10:12:21;96426.56;;;2.16;92.69
33454;BME280;39400;49.744;7.012;2023-03-01T10:15:07;96423.47;;;2.26;92.44
33454;BME280;39400;49.744;7.012;2023-03-01T10:17:55;96422.25;;;2.15;90.93
33454;BME280;39400;49.744;7.012;2023-03-01T10:20:53;96417.94;;;2.44;91.95
33454;BME280;39400;49.744;7.012;2023-03-01T10:23:19;96422.22;;;2.45;89.32
33454;BME280;39400;49.744;7.012;2023-03-01T10:31:04;96424.50;;;2.64;88.34
33454;BME280;39400;49.744;7.012;2023-03-01T10:33:37;96427.81;;;2.69;87.53
33454;BME280;39400;49.744;7.012;2023-03-01T10:36:03;96423.13;;;2.78;88.45
33454;BME280;39400;49.744;7.012;2023-03-01T10:38:31;96412.44;;;2.73;87.43
33454;BME280;39400;49.744;7.012;2023-03-01T10:41:11;96406.97;;;2.82;86.97
33454;BME280;39400;49.744;7.012;2023-03-01T10:43:46;96408.00;;;2.90;86.63
33454;BME280;39400;49.744;7.012;2023-03-01T10:46:31;96409.72;;;2.94;86.80
33454;BME280;39400;49.744;7.012;2023-03-01T10:51:32;96404.63;;;2.93;84.72
33454;BME280;39400;49.744;7.012;2023-03-01T10:53:58;96393.53;;;2.98;84.41
33454;BME280;39400;49.744;7.012;2023-03-01T10:56:23;96413.44;;;2.90;84.81
33454;BME280;39400;49.744;7.012;2023-03-01T10:59:03;96416.38;;;2.84;84.32
33454;BME280;39400;49.744;7.012;2023-03-01T11:01:30;96395.31;;;2.81;83.58
33454;BME280;39400;49.744;7.012;2023-03-01T11:06:32;96396.97;;;3.07;83.50
33454;BME280;39400;49.744;7.012;2023-03-01T11:09:13;96396.41;;;3.34;83.84
33454;BME280;39400;49.744;7.012;2023-03-01T11:11:39;96385.16;;;3.24;82.11
33454;BME280;39400;49.744;7.012;2023-03-01T11:14:15;96386.44;;;3.39;81.19
33454;BME280;39400;49.744;7.012;2023-03-01T11:16:46;96387.84;;;3.57;81.65
33454;BME280;39400;49.744;7.012;2023-03-01T11:21:41;96387.41;;;3.79;79.29
33454;BME280;39400;49.744;7.012;2023-03-01T11:24:14;96370.41;;;3.95;78.98
33454;BME280;39400;49.744;7.012;2023-03-01T11:26:43;96370.41;;;3.95;76.79
33454;BME280;39400;49.744;7.012;2023-03-01T11:29:27;96370.19;;;4.12;78.00
33454;BME280;39400;49.744;7.012;2023-03-01T11:31:58;96353.63;;;4.05;76.29
33454;BME280;39400;49.744;7.012;2023-03-01T11:34:40;96362.78;;;4.37;79.18
33454;BME280;39400;49.744;7.012;2023-03-01T11:37:38;96360.38;;;4.48;77.85
33454;BME280;39400;49.744;7.012;2023-03-01T11:40:15;96352.44;;;4.43;76.70
33454;BME280;39400;49.744;7.012;2023-03-01T11:43:05;96348.81;;;4.51;74.89
33454;BME280;39400;49.744;7.012;2023-03-01T11:49:29;96350.50;;;4.56;76.76
33454;BME280;39400;49.744;7.012;2023-03-01T11:54:27;96349.31;;;4.69;77.08
33454;BME280;39400;49.744;7.012;2023-03-01T11:56:58;96348.53;;;4.68;74.96
33454;BME280;39400;49.744;7.012;2023-03-01T11:59:32;96355.03;;;4.92;74.41
33454;BME280;39400;49.744;7.012;2023-03-01T12:16:02;96320.19;;;5.13;71.23
33454;BME280;39400;49.744;7.012;2023-03-01T12:24:23;96320.56;;;5.59;70.95
33454;BME280;39400;49.744;7.012;2023-03-01T12:32:40;96295.56;;;5.57;70.99
33454;BME280;39400;49.744;7.012;2023-03-01T12:35:28;96300.16;;;5.53;71.81
33454;BME280;39400;49.744;7.012;2023-03-01T12:38:13;96300.41;;;5.95;71.32
33454;BME280;39400;49.744;7.012;2023-03-01T12:48:55;96277.53;;;6.00;70.24
33454;BME280;39400;49.744;7.012;2023-03-01T12:51:26;96274.94;;;6.07;70.10
33454;BME280;39400;49.744;7.012;2023-03-01T12:53:55;96261.00;;;5.93;69.30
33454;BME280;39400;49.744;7.012;2023-03-01T12:56:29;96262.16;;;6.11;69.48
33454;BME280;39400;49.744;7.012;2023-03-01T13:01:45;96248.38;;;6.04;67.77
33454;BME280;39400;49.744;7.012;2023-03-01T13:09:23;96240.06;;;6.36;65.35
33454;BME280;39400;49.744;7.012;2023-03-01T13:11:49;96255.69;;;6.19;68.58
33454;BME280;39400;49.744;7.012;2023-03-01T13:16:46;96229.66;;;6.41;65.59
33454;BME280;39400;49.744;7.012;2023-03-01T13:19:15;96238.47;;;6.54;66.37
33454;BME280;39400;49.744;7.012;2023-03-01T13:21:42;96230.63;;;6.14;63.97
33454;BME280;39400;49.744;7.012;2023-03-01T13:29:47;96241.78;;;6.25;66.85
33454;BME280;39400;49.744;7.012;2023-03-01T13:34:46;96230.16;;;6.28;66.31
33454;BME280;39400;49.744;7.012;2023-03-01T13:37:24;96237.88;;;6.64;67.32
33454;BME280;39400;49.744;7.012;2023-03-01T13:39:50;96230.84;;;6.63;68.13
33454;BME280;39400;49.744;7.012;2023-03-01T13:42:34;96230.97;;;6.71;65.07
33454;BME280;39400;49.744;7.012;2023-03-01T13:45:00;96230.06;;;6.82;65.19
33454;BME280;39400;49.744;7.012;2023-03-01T13:47:27;96225.53;;;6.71;64.97
33454;BME280;39400;49.744;7.012;2023-03-01T13:50:00;96215.97;;;6.61;64.56
33454;BME280;39400;49.744;7.012;2023-03-01T13:52:36;96216.19;;;6.33;64.21
33454;BME280;39400;49.744;7.012;2023-03-01T13:55:06;96234.75;;;7.05;66.12
33454;BME280;39400;49.744;7.012;2023-03-01T13:57:40;96226.94;;;6.84;64.22
33454;BME280;39400;49.744;7.012;2023-03-01T14:00:23;96218.06;;;6.48;63.89
33454;BME280;39400;49.744;7.012;2023-03-01T14:03:20;96222.53;;;6.56;64.60
33454;BME280;39400;49.744;7.012;2023-03-01T14:06:23;96213.19;;;6.38;63.33
33454;BME280;39400;49.744;7.012;2023-03-01T14:08:52;96217.88;;;6.37;64.16
33454;BME280;39400;49.744;7.012;2023-03-01T14:19:40;96210.91;;;8.68;61.08
33454;BME280;39400;49.744;7.012;2023-03-01T14:24:40;96205.84;;;11.52;51.33
33454;BME280;39400;49.744;7.012;2023-03-01T14:27:11;96202.69;;;11.46;49.84
33454;BME280;39400;49.744;7.012;2023-03-01T14:29:38;96181.47;;;11.61;49.18
33454;BME280;39400;49.744;7.012;2023-03-01T14:32:22;96202.59;;;12.35;46.64
33454;BME280;39400;49.744;7.012;2023-03-01T14:34:49;96208.56;;;13.07;46.33
33454;BME280;39400;49.744;7.012;2023-03-01T14:37:32;96197.09;;;14.51;44.02
33454;BME280;39400;49.744;7.012;2023-03-01T14:39:59;96186.50;;;14.04;41.43